createdAt,value
2023-02-09T00:00:48.994Z,134.43
2023-02-09T00:15:55.933Z,137.00
2023-02-09T00:30:58.146Z,125.93
2023-02-09T00:46:00.266Z,139.50
2023-02-09T01:01:02.313Z,139.55
2023-02-09T01:16:12.944Z,151.88
2023-02-09T01:31:24.786Z,143.60
2023-02-09T01:46:32.351Z,172.95
2023-02-09T02:01:34.409Z,162.65
2023-02-09T02:17:04.795Z,148.30
2023-02-09T02:32:24.290Z,156.10
2023-02-09T02:47:31.641Z,153.82
2023-02-09T03:02:43.650Z,151.85
2023-02-09T03:18:05.754Z,155.98
2023-02-09T03:33:21.110Z,139.95
2023-02-09T03:48:23.099Z,137.97
2023-02-09T04:03:25.146Z,143.23
2023-02-09T04:18:27.216Z,150.82
2023-02-09T04:33:29.241Z,147.45
2023-02-09T04:48:31.230Z,138.45
2023-02-09T05:03:33.756Z,127.93
2023-02-09T05:18:36.443Z,133.85
2023-02-09T05:33:38.464Z,126.95
2023-02-09T05:48:40.419Z,119.18
2023-02-09T06:03:42.458Z,99.78
2023-02-09T06:18:44.609Z,91.47
2023-02-09T06:33:46.602Z,69.95
2023-02-09T06:48:48.548Z,78.70
2023-02-09T07:03:50.577Z,59.97
2023-02-09T07:18:52.539Z,40.55
2023-02-09T07:33:55.972Z,34.55
2023-02-09T07:49:00.861Z,26.75
2023-02-09T08:04:04.186Z,23.60
2023-02-09T08:19:17.055Z,23.08
2023-02-09T08:34:19.110Z,22.67
2023-02-09T08:49:21.062Z,22.60
2023-02-09T09:04:23.417Z,23.10
2023-02-09T09:19:26.434Z,22.13
2023-02-09T09:34:29.038Z,24.25
2023-02-09T09:49:33.189Z,17.05
2023-02-09T10:04:35.329Z,17.02
2023-02-09T10:19:37.342Z,15.52
2023-02-09T10:34:40.970Z,17.95
2023-02-09T10:49:43.078Z,16.83
2023-02-09T11:04:48.869Z,14.27
2023-02-09T11:19:59.971Z,13.48
2023-02-09T11:35:09.251Z,13.80
2023-02-09T11:50:22.447Z,26.27
2023-02-09T12:05:25.134Z,14.38
2023-02-09T12:20:38.521Z,12.77
2023-02-09T12:35:41.273Z,14.70
2023-02-09T12:50:43.392Z,13.82
2023-02-09T13:05:47.890Z,17.30
2023-02-09T13:21:08.229Z,17.10
2023-02-09T13:36:45.782Z,15.45
2023-02-09T13:52:07.585Z,14.97
2023-02-09T14:07:13.474Z,19.88
2023-02-09T14:22:39.309Z,20.75
2023-02-09T14:37:42.522Z,23.73
2023-02-09T14:52:47.476Z,26.02
2023-02-09T15:07:54.148Z,22.58
2023-02-09T15:22:57.604Z,28.47
2023-02-09T15:38:01.561Z,31.88
2023-02-09T15:53:06.796Z,27.50
2023-02-09T16:08:30.333Z,32.38
2023-02-09T16:23:34.314Z,34.03
2023-02-09T16:38:36.480Z,36.75
2023-02-09T16:53:44.814Z,35.28
2023-02-09T17:08:47.993Z,31.65
2023-02-09T17:23:51.307Z,35.95
2023-02-09T17:38:53.840Z,33.33
2023-02-09T17:53:55.957Z,34.53
2023-02-09T18:08:57.957Z,32.75
2023-02-09T18:23:59.940Z,31.75
2023-02-09T18:39:02.358Z,33.00
2023-02-09T18:54:05.653Z,33.10
2023-02-09T19:09:07.724Z,28.50
2023-02-09T19:24:09.740Z,31.25
2023-02-09T19:39:12.034Z,46.92
2023-02-09T19:54:14.060Z,47.97
2023-02-09T20:09:16.688Z,41.25
2023-02-09T20:24:18.797Z,46.03
2023-02-09T20:39:23.604Z,61.78
2023-02-09T20:54:26.018Z,46.15
2023-02-09T21:09:29.395Z,30.23
2023-02-09T21:24:31.444Z,27.67
2023-02-09T21:39:33.465Z,24.58
2023-02-09T21:54:35.484Z,26.42
2023-02-09T22:09:37.628Z,31.20
2023-02-09T22:24:39.613Z,27.63
2023-02-09T22:39:41.608Z,25.70
2023-02-09T22:54:43.551Z,37.13
2023-02-09T23:09:45.502Z,51.25
2023-02-09T23:24:47.537Z,53.80
2023-02-09T23:39:49.489Z,57.80
2023-02-09T23:54:51.422Z,45.65
